Gdf Suez North Sea — HPSQ — position and weather

sailwx.info

Track history (hours):
 
Tides and Currents Weather Stations Pressure Air Temp Water Temp Dewpoint Dewpoint Depression Visibility Wind Speed Wind Dir Waves Ship Positions

Gdf Suez North Sea

Last reported at 2017-Mar-13 12:13 UTC. Time now 2017-Mar-27 12:27 UTC.
Position N 28°49' W 012°51'.
Warning: this ship's position is 14 days out of date.

Length 190 m; draft 6.3 m.

Type: Cargo ship. MMSI: 373341000.

Date/timePositionNaut miles runAvg speedWind from/ knotsBaromVisibWave heightAir tempDewpointWater temp
2017-Mar-13 12:13N 28°49' W 012°51'55 5.6
2017-Mar-13 02:28N 28°08' W 013°33'15 8.0
2017-Mar-13 00:33N 27°56' W 013°44'9 8.6
2017-Mar-12 23:30N 27°51' W 013°52'8 8.8
2017-Mar-12 22:33N 27°45' W 013°59'38 9.6
2017-Mar-12 18:33N 27°19' W 014°31'2410.6
2017-Mar-12 16:17N 27°03' W 014°51'1311.0
2017-Mar-12 15:08N 26°55' W 015°01'711.3
2017-Mar-12 14:33N 26°50' W 015°07'1111.1
2017-Mar-12 13:32N 26°43' W 015°16'1211.1
2017-Mar-12 12:26N 26°35' W 015°27'3311.2
2017-Mar-12 09:27N 26°13' W 015°54'1511.4
2017-Mar-12 08:06N 26°02' W 016°07'  
2017-Mar-10 01:26N 15°22' W 017°60'1112.7
2017-Mar-10 00:33N 15°10' W 018°00'1412.8
2017-Mar-09 23:28N 14°56' W 018°00'1312.9
2017-Mar-09 22:28N 14°43' W 018°00'2412.3
2017-Mar-09 20:33N 14°20' W 018°00'1212.1
2017-Mar-09 19:33N 14°08' W 017°60'8512.0
2017-Mar-09 12:25N 12°42' W 017°60'1112.0
2017-Mar-09 11:29N 12°31' W 017°60'3812.2
2017-Mar-09 08:23N 11°53' W 017°60'1012.6
2017-Mar-09 07:33N 11°43' W 017°60'3712.4
2017-Mar-09 04:32N 11°05' W 017°60'2512.5
2017-Mar-09 02:33N 10°41' W 017°60'6312.3
2017-Mar-08 21:26N 09°38' W 017°60'1112.4
2017-Mar-08 20:34N 09°27' W 018°00'1312.8
2017-Mar-08 19:31N 09°13' W 017°60'1212.5
2017-Mar-08 18:34N 09°01' W 017°60'1212.5
2017-Mar-08 17:34N 08°54' W 017°50'1312.5
2017-Mar-08 16:33N 08°47' W 017°39'  
Track history (hours):
 
Tides and Currents Weather Stations Pressure Air Temp Water Temp Dewpoint Dewpoint Depression Visibility Wind Speed Wind Dir Waves Ship Positions

Gdf Suez North Sea

Last reported at 2017-Mar-13 12:13 UTC. Time now 2017-Mar-27 12:27 UTC.
Position N 28°49' W 012°51'.
Warning: this ship's position is 14 days out of date.

Length 190 m; draft 6.3 m.

Type: Cargo ship. MMSI: 373341000.

Date/timePositionNaut miles runAvg speedWind from/ knotsBaromVisibWave heightAir tempDewpointWater temp
2017-Mar-13 12:13N 28°49' W 012°51'55 5.6
2017-Mar-13 02:28N 28°08' W 013°33'15 8.0
2017-Mar-13 00:33N 27°56' W 013°44'9 8.6
2017-Mar-12 23:30N 27°51' W 013°52'8 8.8
2017-Mar-12 22:33N 27°45' W 013°59'38 9.6
2017-Mar-12 18:33N 27°19' W 014°31'2410.6
2017-Mar-12 16:17N 27°03' W 014°51'1311.0
2017-Mar-12 15:08N 26°55' W 015°01'711.3
2017-Mar-12 14:33N 26°50' W 015°07'1111.1
2017-Mar-12 13:32N 26°43' W 015°16'1211.1
2017-Mar-12 12:26N 26°35' W 015°27'3311.2
2017-Mar-12 09:27N 26°13' W 015°54'1511.4
2017-Mar-12 08:06N 26°02' W 016°07'  
2017-Mar-10 01:26N 15°22' W 017°60'1112.7
2017-Mar-10 00:33N 15°10' W 018°00'1412.8
2017-Mar-09 23:28N 14°56' W 018°00'1312.9
2017-Mar-09 22:28N 14°43' W 018°00'2412.3
2017-Mar-09 20:33N 14°20' W 018°00'1212.1
2017-Mar-09 19:33N 14°08' W 017°60'8512.0
2017-Mar-09 12:25N 12°42' W 017°60'1112.0
2017-Mar-09 11:29N 12°31' W 017°60'3812.2
2017-Mar-09 08:23N 11°53' W 017°60'1012.6
2017-Mar-09 07:33N 11°43' W 017°60'3712.4
2017-Mar-09 04:32N 11°05' W 017°60'2512.5
2017-Mar-09 02:33N 10°41' W 017°60'6312.3
2017-Mar-08 21:26N 09°38' W 017°60'1112.4
2017-Mar-08 20:34N 09°27' W 018°00'1312.8
2017-Mar-08 19:31N 09°13' W 017°60'1212.5
2017-Mar-08 18:34N 09°01' W 017°60'1212.5
2017-Mar-08 17:34N 08°54' W 017°50'1312.5
2017-Mar-08 16:33N 08°47' W 017°39'  

Dump ship's entire track history